createdAt,value
2018-08-18T00:00:41.884Z,100573.77
2018-08-18T00:03:18.559Z,100576.53
2018-08-18T00:05:52.808Z,100585.92
2018-08-18T00:08:26.060Z,100583.27
2018-08-18T00:11:04.182Z,100577.25
2018-08-18T00:13:55.694Z,100577.95
2018-08-18T00:16:28.513Z,100579.72
2018-08-18T00:19:01.568Z,100578.92
2018-08-18T00:21:35.120Z,100575.16
2018-08-18T00:24:11.864Z,100577.34
2018-08-18T00:26:47.816Z,100572.89
2018-08-18T00:29:21.169Z,100572.31
2018-08-18T00:31:53.640Z,100579.64
2018-08-18T00:34:26.818Z,100574.59
2018-08-18T00:36:59.540Z,100572.77
2018-08-18T00:39:32.470Z,100574.70
2018-08-18T00:42:05.492Z,100577.47
2018-08-18T00:44:38.586Z,100578.91
2018-08-18T00:47:13.520Z,100580.94
2018-08-18T00:49:47.464Z,100584.41
2018-08-18T00:52:21.430Z,100580.20
2018-08-18T00:54:54.019Z,100584.43
2018-08-18T00:57:30.614Z,100580.45
2018-08-18T01:00:07.024Z,100586.90
2018-08-18T01:02:40.191Z,100584.81
2018-08-18T01:05:14.270Z,100587.56
2018-08-18T01:07:46.961Z,100587.08
2018-08-18T01:10:21.853Z,100592.50
2018-08-18T01:13:13.436Z,100590.80
2018-08-18T01:15:45.933Z,100595.20
2018-08-18T01:18:18.532Z,100594.66
2018-08-18T01:20:51.597Z,100597.09
2018-08-18T01:23:24.064Z,100603.95
2018-08-18T01:25:56.580Z,100606.53
2018-08-18T01:28:30.616Z,100611.88
2018-08-18T01:31:19.532Z,100611.40
2018-08-18T01:33:53.827Z,100614.95
2018-08-18T01:36:26.568Z,100614.53
2018-08-18T01:39:00.463Z,100612.56
2018-08-18T01:41:32.929Z,100614.75
2018-08-18T01:44:21.275Z,100613.17
2018-08-18T01:46:54.277Z,100610.08
2018-08-18T01:49:33.616Z,100611.42
2018-08-18T01:52:15.792Z,100607.44
2018-08-18T01:54:49.756Z,100607.34
2018-08-18T01:57:23.681Z,100608.70
2018-08-18T01:59:56.261Z,100609.70
2018-08-18T02:02:28.838Z,100608.58
2018-08-18T02:05:16.989Z,100606.02
2018-08-18T02:07:49.679Z,100609.98
2018-08-18T02:10:22.348Z,100608.91
2018-08-18T02:13:04.609Z,100606.87
2018-08-18T02:15:37.065Z,100602.44
2018-08-18T02:18:10.315Z,100599.09
2018-08-18T02:20:44.020Z,100602.04
2018-08-18T02:23:16.501Z,100601.09
2018-08-18T02:25:48.999Z,100598.64
2018-08-18T02:28:30.388Z,100596.53
2018-08-18T02:31:03.001Z,100599.27
2018-08-18T02:33:35.400Z,100599.27
2018-08-18T02:36:08.479Z,100603.02
2018-08-18T02:38:53.794Z,100607.28
2018-08-18T02:41:29.117Z,100613.66
2018-08-18T02:44:02.921Z,100611.61
2018-08-18T02:46:37.832Z,100611.61
2018-08-18T02:49:10.320Z,100615.77
2018-08-18T02:51:43.109Z,100609.91
2018-08-18T02:54:15.677Z,100614.94
2018-08-18T02:56:48.230Z,100615.61
2018-08-18T02:59:21.105Z,100615.08
2018-08-18T03:01:55.300Z,100617.42
2018-08-18T03:04:46.318Z,100621.37
2018-08-18T03:07:19.193Z,100616.98
2018-08-18T03:09:52.131Z,100621.03
2018-08-18T03:12:42.800Z,100620.71
2018-08-18T03:15:51.544Z,100622.66
2018-08-18T03:18:49.972Z,100623.41
2018-08-18T03:21:32.787Z,100624.81
2018-08-18T03:24:19.978Z,100626.78
2018-08-18T03:26:56.213Z,100633.67
2018-08-18T03:29:50.701Z,100629.77
2018-08-18T03:32:24.810Z,100634.14
2018-08-18T03:34:58.146Z,100635.48
2018-08-18T03:37:35.416Z,100636.64
2018-08-18T03:40:08.149Z,100637.58
2018-08-18T03:42:41.956Z,100634.27
2018-08-18T03:45:16.471Z,100639.91
2018-08-18T03:47:49.052Z,100641.41
2018-08-18T03:50:48.748Z,100642.34
2018-08-18T03:53:21.219Z,100643.02
2018-08-18T03:55:53.579Z,100646.02
2018-08-18T03:58:51.712Z,100640.52
2018-08-18T04:01:58.360Z,100641.02
2018-08-18T04:04:38.470Z,100642.84
2018-08-18T04:07:11.077Z,100642.02
2018-08-18T04:09:43.586Z,100641.45
2018-08-18T04:12:16.401Z,100646.31
2018-08-18T04:14:49.025Z,100646.37
2018-08-18T04:17:31.128Z,100647.37
2018-08-18T04:20:04.570Z,100646.48
2018-08-18T04:22:37.995Z,100648.02
2018-08-18T04:25:10.472Z,100646.81
2018-08-18T04:27:46.456Z,100650.36
2018-08-18T04:30:22.433Z,100648.36
2018-08-18T04:33:04.400Z,100649.92
2018-08-18T04:35:59.388Z,100651.41
2018-08-18T04:38:31.972Z,100653.98
2018-08-18T04:41:08.259Z,100657.98
2018-08-18T04:43:41.037Z,100668.83
2018-08-18T04:46:15.090Z,100666.56
2018-08-18T04:48:48.884Z,100667.16
2018-08-18T04:51:23.995Z,100668.49
2018-08-18T04:53:56.613Z,100671.88
2018-08-18T04:56:29.796Z,100673.72
2018-08-18T04:59:02.806Z,100670.98
2018-08-18T05:01:35.440Z,100669.05
2018-08-18T05:04:10.424Z,100671.44
2018-08-18T05:06:43.303Z,100672.48
2018-08-18T05:09:15.852Z,100672.66
2018-08-18T05:11:50.436Z,100670.94
2018-08-18T05:14:23.216Z,100672.66
2018-08-18T05:16:57.607Z,100674.14
2018-08-18T05:19:31.096Z,100678.14
2018-08-18T05:22:03.605Z,100673.45
2018-08-18T05:24:36.163Z,100667.78
2018-08-18T05:27:14.481Z,100674.67
2018-08-18T05:29:48.591Z,100668.89
2018-08-18T05:32:21.579Z,100673.89
2018-08-18T05:34:54.492Z,100674.03
2018-08-18T05:37:27.019Z,100679.16
2018-08-18T05:39:59.619Z,100676.12
2018-08-18T05:42:32.425Z,100676.08
2018-08-18T05:45:27.160Z,100675.83
2018-08-18T05:47:59.671Z,100679.48
2018-08-18T05:50:32.699Z,100679.23
2018-08-18T05:53:35.170Z,100677.87
2018-08-18T05:56:07.724Z,100681.05
2018-08-18T05:58:54.185Z,100691.22
2018-08-18T06:01:35.320Z,100689.59
2018-08-18T06:04:12.833Z,100693.48
2018-08-18T06:06:46.276Z,100698.14
2018-08-18T06:09:20.883Z,100701.59
2018-08-18T06:11:56.882Z,100702.53
2018-08-18T06:14:46.564Z,100697.97
2018-08-18T06:17:25.015Z,100700.80
2018-08-18T06:19:57.649Z,100705.88
2018-08-18T06:22:30.170Z,100707.66
2018-08-18T06:25:03.458Z,100705.06
2018-08-18T06:27:35.969Z,100706.38
2018-08-18T06:30:08.136Z,100712.83
2018-08-18T06:32:41.077Z,100712.16
2018-08-18T06:35:15.218Z,100711.56
2018-08-18T06:37:59.092Z,100713.12
2018-08-18T06:40:32.495Z,100709.89
2018-08-18T06:43:06.184Z,100709.45
2018-08-18T06:45:38.764Z,100709.62
2018-08-18T06:48:20.906Z,100713.19
2018-08-18T06:50:53.787Z,100708.25
2018-08-18T06:53:26.958Z,100712.33
2018-08-18T06:56:00.361Z,100711.66
2018-08-18T06:58:33.345Z,100711.97
2018-08-18T07:01:07.489Z,100714.70
2018-08-18T07:03:46.516Z,100714.13
2018-08-18T07:06:19.264Z,100716.50
2018-08-18T07:08:52.901Z,100712.63
2018-08-18T07:11:25.485Z,100714.07
2018-08-18T07:14:00.439Z,100718.31
2018-08-18T07:16:34.733Z,100714.64
2018-08-18T07:19:08.200Z,100714.06
2018-08-18T07:21:41.046Z,100713.56
2018-08-18T07:24:14.123Z,100708.66
2018-08-18T07:26:46.709Z,100712.65
2018-08-18T07:29:48.912Z,100717.44
2018-08-18T07:32:23.235Z,100710.95
2018-08-18T07:34:55.926Z,100712.55
2018-08-18T07:37:29.507Z,100705.59
2018-08-18T07:40:02.237Z,100707.69
2018-08-18T07:42:34.796Z,100714.78
2018-08-18T07:45:08.277Z,100715.52
2018-08-18T07:47:40.774Z,100716.83
2018-08-18T07:50:14.621Z,100709.83
2018-08-18T07:52:48.163Z,100713.07
2018-08-18T07:55:20.772Z,100705.47
2018-08-18T07:57:59.664Z,100713.00
2018-08-18T08:00:33.616Z,100715.02
2018-08-18T08:03:13.113Z,100717.63
2018-08-18T08:05:45.732Z,100718.27
2018-08-18T08:08:20.281Z,100719.73
2018-08-18T08:11:11.736Z,100717.42
2018-08-18T08:13:45.440Z,100715.46
2018-08-18T08:16:17.994Z,100714.16
2018-08-18T08:18:52.642Z,100714.39
2018-08-18T08:21:25.725Z,100722.66
2018-08-18T08:24:01.533Z,100721.69
2018-08-18T08:26:38.369Z,100721.08
2018-08-18T08:29:35.871Z,100715.95
2018-08-18T08:32:09.594Z,100726.62
2018-08-18T08:34:45.876Z,100726.33
2018-08-18T08:37:24.898Z,100724.98
2018-08-18T08:39:59.050Z,100724.22
2018-08-18T08:42:34.200Z,100723.78
2018-08-18T08:45:18.121Z,100723.37
2018-08-18T08:47:54.761Z,100726.19
2018-08-18T08:50:27.486Z,100723.72
2018-08-18T08:53:00.744Z,100724.64
2018-08-18T08:55:35.494Z,100720.80
2018-08-18T08:58:09.829Z,100722.67
2018-08-18T09:00:45.633Z,100722.35
2018-08-18T09:03:18.806Z,100718.45
2018-08-18T09:05:51.326Z,100721.50
2018-08-18T09:08:38.565Z,100723.31
2018-08-18T09:11:13.540Z,100724.50
2018-08-18T09:14:03.742Z,100724.41
2018-08-18T09:16:36.680Z,100723.08
2018-08-18T09:19:09.394Z,100726.14
2018-08-18T09:21:48.506Z,100717.78
2018-08-18T09:24:24.739Z,100712.09
2018-08-18T09:27:00.017Z,100708.88
2018-08-18T09:29:43.564Z,100706.28
2018-08-18T09:32:18.428Z,100706.40
2018-08-18T09:34:52.882Z,100714.31
2018-08-18T09:37:25.833Z,100709.42
2018-08-18T09:40:01.983Z,100708.88
2018-08-18T09:42:35.074Z,100696.02
2018-08-18T09:45:09.998Z,100699.34
2018-08-18T09:47:44.675Z,100699.08
2018-08-18T09:50:18.827Z,100702.38
2018-08-18T09:52:52.152Z,100699.61
2018-08-18T09:55:24.736Z,100700.97
2018-08-18T09:57:58.397Z,100697.49
2018-08-18T10:00:42.186Z,100705.67
2018-08-18T10:03:18.394Z,100708.38
2018-08-18T10:05:50.876Z,100701.13
2018-08-18T10:08:24.044Z,100701.60
2018-08-18T10:11:01.098Z,100702.53
2018-08-18T10:13:34.841Z,100701.47
2018-08-18T10:16:09.367Z,100698.47
2018-08-18T10:18:48.150Z,100704.19
2018-08-18T10:21:21.358Z,100696.62
2018-08-18T10:23:54.242Z,100693.83
2018-08-18T10:26:30.296Z,100693.64
2018-08-18T10:29:20.945Z,100698.69
2018-08-18T10:32:00.110Z,100694.97
2018-08-18T10:34:34.780Z,100695.31
2018-08-18T10:37:14.108Z,100698.92
2018-08-18T10:39:53.626Z,100696.97
2018-08-18T10:42:33.144Z,100691.64
2018-08-18T10:45:08.797Z,100690.11
2018-08-18T10:47:45.244Z,100692.92
2018-08-18T10:50:42.162Z,100685.88
2018-08-18T10:53:15.898Z,100679.27
2018-08-18T10:55:50.054Z,100677.39
2018-08-18T10:58:46.099Z,100686.16
2018-08-18T11:01:18.936Z,100686.09
2018-08-18T11:03:53.065Z,100678.67
2018-08-18T11:06:33.289Z,100674.50
2018-08-18T11:09:10.013Z,100677.64
2018-08-18T11:11:46.425Z,100678.66
2018-08-18T11:14:21.987Z,100678.81
2018-08-18T11:16:56.456Z,100679.84
2018-08-18T11:19:30.102Z,100676.12
2018-08-18T11:23:02.133Z,100674.95
2018-08-18T11:25:44.796Z,100677.25
2018-08-18T11:28:19.363Z,100679.58
2018-08-18T11:30:55.328Z,100678.54
2018-08-18T11:33:43.718Z,100670.38
2018-08-18T11:36:17.333Z,100668.55
2018-08-18T11:38:50.257Z,100679.38
2018-08-18T11:41:26.213Z,100677.33
2018-08-18T11:43:58.968Z,100669.30
2018-08-18T11:46:48.280Z,100668.87
2018-08-18T11:49:21.012Z,100662.94
2018-08-18T11:51:58.265Z,100651.59
2018-08-18T11:54:31.109Z,100650.72
2018-08-18T11:57:03.779Z,100653.11
2018-08-18T11:59:36.439Z,100653.67
2018-08-18T12:02:09.757Z,100644.29
2018-08-18T12:04:42.424Z,100640.27
2018-08-18T12:07:15.966Z,100635.92
2018-08-18T12:09:52.497Z,100634.75
2018-08-18T12:12:25.831Z,100644.27
2018-08-18T12:14:59.749Z,100636.16
2018-08-18T12:17:57.344Z,100637.51
2018-08-18T12:20:31.606Z,100642.41
2018-08-18T12:23:09.517Z,100640.35
2018-08-18T12:25:48.145Z,100634.75
2018-08-18T12:28:45.795Z,100642.27
2018-08-18T12:31:33.155Z,100637.95
2018-08-18T12:34:06.065Z,100633.05
2018-08-18T12:36:40.480Z,100628.16
2018-08-18T12:39:13.533Z,100640.41
2018-08-18T12:41:49.721Z,100628.17
2018-08-18T12:44:33.342Z,100630.52
2018-08-18T12:47:06.431Z,100622.91
2018-08-18T12:49:42.256Z,100620.03
2018-08-18T12:52:14.984Z,100631.16
2018-08-18T12:54:49.098Z,100621.23
2018-08-18T12:57:40.921Z,100622.55
2018-08-18T13:00:17.703Z,100619.92
2018-08-18T13:02:54.661Z,100609.72
2018-08-18T13:05:31.366Z,100609.47
2018-08-18T13:08:09.245Z,100606.56
2018-08-18T13:10:42.808Z,100603.93
2018-08-18T13:13:16.141Z,100601.66
2018-08-18T13:15:54.042Z,100600.47
2018-08-18T13:18:28.615Z,100599.98
2018-08-18T13:21:06.702Z,100594.81
2018-08-18T13:23:46.161Z,100600.59
2018-08-18T13:26:18.888Z,100595.94
2018-08-18T13:28:53.152Z,100596.44
2018-08-18T13:31:33.780Z,100587.88
2018-08-18T13:34:09.407Z,100592.25
2018-08-18T13:36:44.827Z,100589.31
2018-08-18T13:39:24.705Z,100599.52
2018-08-18T13:42:25.413Z,100585.04
2018-08-18T13:44:58.041Z,100583.70
2018-08-18T13:47:30.657Z,100577.38
2018-08-18T13:50:09.277Z,100583.94
2018-08-18T13:52:47.556Z,100571.03
2018-08-18T13:55:31.516Z,100573.61
2018-08-18T13:58:05.744Z,100569.73
2018-08-18T14:00:38.642Z,100562.83
2018-08-18T14:03:36.585Z,100568.20
2018-08-18T14:06:22.321Z,100570.68
2018-08-18T14:09:01.232Z,100563.80
2018-08-18T14:11:34.657Z,100560.81
2018-08-18T14:14:09.057Z,100555.63
2018-08-18T14:16:42.137Z,100556.57
2018-08-18T14:19:16.497Z,100557.22
2018-08-18T14:22:05.070Z,100556.92
2018-08-18T14:24:41.707Z,100557.98
2018-08-18T14:27:17.775Z,100562.77
2018-08-18T14:29:50.653Z,100553.56
2018-08-18T14:32:28.540Z,100557.45
2018-08-18T14:35:05.723Z,100547.18
2018-08-18T14:37:41.859Z,100551.64
2018-08-18T14:40:18.085Z,100552.53
2018-08-18T14:42:51.225Z,100554.86
2018-08-18T14:45:28.788Z,100562.56
2018-08-18T14:48:01.865Z,100557.30
2018-08-18T14:50:38.206Z,100553.70
2018-08-18T14:53:16.692Z,100560.78
2018-08-18T14:55:52.347Z,100557.30
2018-08-18T14:58:31.695Z,100555.33
2018-08-18T15:01:12.929Z,100544.91
2018-08-18T15:03:46.016Z,100543.66
2018-08-18T15:06:22.445Z,100544.28
2018-08-18T15:08:58.485Z,100548.86
2018-08-18T15:11:32.815Z,100548.04
2018-08-18T15:14:13.522Z,100546.36
2018-08-18T15:16:51.016Z,100537.41
2018-08-18T15:19:28.676Z,100540.81
2018-08-18T15:22:12.556Z,100538.89
2018-08-18T15:24:51.404Z,100535.48
2018-08-18T15:27:30.876Z,100536.47
2018-08-18T15:30:17.053Z,100528.34
2018-08-18T15:32:54.549Z,100535.86
2018-08-18T15:35:36.724Z,100533.78
2018-08-18T15:38:16.889Z,100530.16
2018-08-18T15:40:54.193Z,100532.55
2018-08-18T15:43:32.759Z,100528.48
2018-08-18T15:46:10.358Z,100530.27
2018-08-18T15:48:49.128Z,100527.47
2018-08-18T15:51:29.056Z,100530.33
2018-08-18T15:54:06.591Z,100521.44
2018-08-18T15:56:45.704Z,100525.92
2018-08-18T15:59:27.720Z,100526.80
2018-08-18T16:02:05.233Z,100527.25
2018-08-18T16:04:42.662Z,100524.08
2018-08-18T16:07:21.785Z,100525.14
2018-08-18T16:09:59.973Z,100522.35
2018-08-18T16:12:37.363Z,100525.14
2018-08-18T16:15:16.465Z,100522.77
2018-08-18T16:17:55.208Z,100523.20
2018-08-18T16:20:34.329Z,100518.52
2018-08-18T16:23:23.200Z,100519.40
2018-08-18T16:25:56.834Z,100522.25
2018-08-18T16:28:36.169Z,100515.31
2018-08-18T16:31:09.454Z,100518.05
2018-08-18T16:33:57.171Z,100522.98
2018-08-18T16:36:36.783Z,100516.94
2018-08-18T16:39:12.404Z,100515.52
2018-08-18T16:41:47.418Z,100512.89
2018-08-18T16:44:20.116Z,100513.86
2018-08-18T16:46:53.445Z,100511.53
2018-08-18T16:49:26.798Z,100510.17
2018-08-18T16:52:00.048Z,100505.88
2018-08-18T16:54:33.767Z,100515.81
2018-08-18T16:57:08.675Z,100511.02
2018-08-18T16:59:41.138Z,100518.98
2018-08-18T17:02:35.370Z,100516.84
2018-08-18T17:05:11.336Z,100514.27
2018-08-18T17:07:51.192Z,100517.86
2018-08-18T17:10:31.261Z,100519.75
2018-08-18T17:13:11.809Z,100525.69
2018-08-18T17:15:56.455Z,100520.29
2018-08-18T17:18:41.411Z,100523.48
2018-08-18T17:21:19.602Z,100532.87
2018-08-18T17:23:53.700Z,100532.56
2018-08-18T17:26:31.108Z,100540.86
2018-08-18T17:29:05.058Z,100535.94
2018-08-18T17:31:38.884Z,100534.77
2018-08-18T17:34:14.448Z,100537.37
2018-08-18T17:36:47.173Z,100537.56
2018-08-18T17:39:20.849Z,100540.27
2018-08-18T17:41:53.760Z,100541.91
2018-08-18T17:44:28.809Z,100541.78
2018-08-18T17:47:08.033Z,100546.36
2018-08-18T17:49:49.182Z,100545.02
2018-08-18T17:52:23.661Z,100553.25
2018-08-18T17:55:18.546Z,100555.82
2018-08-18T17:57:54.135Z,100552.37
2018-08-18T18:00:31.138Z,100551.33
2018-08-18T18:03:09.850Z,100551.06
2018-08-18T18:05:44.731Z,100550.67
2018-08-18T18:08:18.919Z,100548.20
2018-08-18T18:10:52.821Z,100550.64
2018-08-18T18:13:28.968Z,100556.55
2018-08-18T18:16:25.362Z,100553.58
2018-08-18T18:19:01.396Z,100554.08
2018-08-18T18:21:41.829Z,100557.88
2018-08-18T18:24:43.169Z,100561.61
2018-08-18T18:27:17.013Z,100563.02
2018-08-18T18:29:51.578Z,100568.23
2018-08-18T18:32:26.699Z,100571.27
2018-08-18T18:35:07.549Z,100570.19
2018-08-18T18:37:40.427Z,100572.81
2018-08-18T18:40:17.897Z,100573.11
2018-08-18T18:42:51.820Z,100573.94
2018-08-18T18:45:26.312Z,100572.13
2018-08-18T18:48:12.484Z,100579.31
2018-08-18T18:50:50.130Z,100586.91
2018-08-18T18:53:46.453Z,100586.20
2018-08-18T18:56:25.511Z,100591.25
2018-08-18T18:59:02.638Z,100593.84
2018-08-18T19:01:37.757Z,100600.91
2018-08-18T19:04:13.291Z,100611.69
2018-08-18T19:07:06.195Z,100612.97
2018-08-18T19:09:38.801Z,100614.58
2018-08-18T19:12:17.809Z,100619.95
2018-08-18T19:14:52.674Z,100622.20
2018-08-18T19:17:25.713Z,100621.55
2018-08-18T19:20:22.582Z,100630.80
2018-08-18T19:23:04.648Z,100631.59
2018-08-18T19:25:39.710Z,100633.52
2018-08-18T19:28:18.369Z,100636.62
2018-08-18T19:30:54.699Z,100637.75
2018-08-18T19:33:30.469Z,100636.81
2018-08-18T19:36:06.584Z,100635.67
2018-08-18T19:38:38.972Z,100636.44
2018-08-18T19:41:22.615Z,100633.69
2018-08-18T19:43:57.940Z,100641.44
2018-08-18T19:46:35.750Z,100643.35
2018-08-18T19:49:10.658Z,100643.22
2018-08-18T19:51:45.955Z,100646.72
2018-08-18T19:54:23.291Z,100643.64
2018-08-18T19:56:56.815Z,100641.84
2018-08-18T19:59:30.208Z,100641.73
2018-08-18T20:02:05.248Z,100644.22
2018-08-18T20:04:38.528Z,100646.36
2018-08-18T20:07:13.192Z,100639.06
2018-08-18T20:09:45.836Z,100643.53
2018-08-18T20:12:18.667Z,100648.28
2018-08-18T20:14:52.038Z,100643.30
2018-08-18T20:17:29.369Z,100646.38
2018-08-18T20:20:01.996Z,100644.20
2018-08-18T20:22:35.739Z,100638.79
2018-08-18T20:25:17.147Z,100643.73
2018-08-18T20:27:50.660Z,100643.08
2018-08-18T20:30:25.744Z,100644.39
2018-08-18T20:33:00.490Z,100645.66
2018-08-18T20:35:33.127Z,100646.04
2018-08-18T20:38:06.372Z,100645.49
2018-08-18T20:40:44.024Z,100646.79
2018-08-18T20:43:18.800Z,100652.97
2018-08-18T20:45:52.303Z,100654.92
2018-08-18T20:48:27.131Z,100662.16
2018-08-18T20:51:03.028Z,100659.70
2018-08-18T20:53:41.906Z,100664.65
2018-08-18T20:56:15.289Z,100663.69
2018-08-18T20:58:50.597Z,100664.06
2018-08-18T21:01:24.537Z,100658.19
2018-08-18T21:03:58.679Z,100657.14
2018-08-18T21:06:33.373Z,100656.84
2018-08-18T21:09:34.775Z,100659.89
2018-08-18T21:12:10.394Z,100660.25
2018-08-18T21:14:44.413Z,100664.39
2018-08-18T21:17:19.304Z,100667.95
2018-08-18T21:19:56.226Z,100669.83
2018-08-18T21:22:31.712Z,100668.21
2018-08-18T21:25:09.282Z,100668.79
2018-08-18T21:27:53.052Z,100673.82
2018-08-18T21:30:30.630Z,100669.75
2018-08-18T21:33:06.988Z,100666.67
2018-08-18T21:35:42.538Z,100671.80
2018-08-18T21:38:19.264Z,100671.93
2018-08-18T21:40:56.633Z,100674.16
2018-08-18T21:43:36.122Z,100677.31
2018-08-18T21:46:11.495Z,100682.80
2018-08-18T21:48:52.321Z,100684.66
2018-08-18T21:51:28.927Z,100682.97
2018-08-18T21:54:05.398Z,100686.92
2018-08-18T21:56:42.516Z,100686.17
2018-08-18T21:59:15.098Z,100690.48
2018-08-18T22:01:58.488Z,100688.91
2018-08-18T22:04:33.996Z,100689.88
2018-08-18T22:07:09.449Z,100688.91
2018-08-18T22:09:44.267Z,100689.62
2018-08-18T22:12:31.663Z,100693.90
2018-08-18T22:15:15.910Z,100697.78
2018-08-18T22:17:51.523Z,100696.30
2018-08-18T22:20:24.731Z,100700.08
2018-08-18T22:22:57.568Z,100702.30
2018-08-18T22:25:30.156Z,100705.55
2018-08-18T22:28:02.555Z,100705.07
2018-08-18T22:30:40.559Z,100706.53
2018-08-18T22:33:13.528Z,100704.09
2018-08-18T22:35:56.393Z,100700.16
2018-08-18T22:38:32.074Z,100700.66
2018-08-18T22:41:09.319Z,100709.98
2018-08-18T22:43:44.397Z,100703.89
2018-08-18T22:46:22.055Z,100713.30
2018-08-18T22:48:57.844Z,100713.58
2018-08-18T22:51:35.228Z,100716.23
2018-08-18T22:54:11.678Z,100713.74
2018-08-18T22:57:01.520Z,100713.41
2018-08-18T22:59:34.244Z,100717.13
2018-08-18T23:02:07.020Z,100715.08
2018-08-18T23:04:39.511Z,100716.06
2018-08-18T23:07:14.861Z,100713.62
2018-08-18T23:09:48.544Z,100720.09
2018-08-18T23:12:21.136Z,100717.21
2018-08-18T23:14:55.080Z,100716.59
2018-08-18T23:17:29.882Z,100717.41
2018-08-18T23:20:04.843Z,100712.98
2018-08-18T23:23:00.937Z,100709.81
2018-08-18T23:25:34.519Z,100707.19
2018-08-18T23:28:09.417Z,100707.53
2018-08-18T23:30:43.157Z,100715.45
2018-08-18T23:33:20.178Z,100715.41
2018-08-18T23:35:58.740Z,100714.02
2018-08-18T23:38:56.669Z,100709.34
2018-08-18T23:41:29.089Z,100704.80
2018-08-18T23:44:02.191Z,100712.13
2018-08-18T23:46:35.512Z,100705.67
2018-08-18T23:49:09.396Z,100710.52
2018-08-18T23:51:42.605Z,100711.91
2018-08-18T23:54:21.305Z,100713.84
2018-08-18T23:56:53.955Z,100713.92
2018-08-18T23:59:26.787Z,100707.75
